Time;durP1;ratioP1;P1;durP2;ratioP2;P2;SDS_P1;SDS_P2;PMS_P1;PMS_P2;Temp;Humidity;BMP_temperature;BMP_pressure;BME280_temperature;BME280_humidity;BME280_pressure;Samples;Min_cycle;Max_cycle;Signal;HPM_P1;HPM_P2
2020/12/13 00:00:09;;;;;;;;;;;14.70;86.60;;;;;;4214142;28;20012;-39
2020/12/13 00:02:29;;;;;;;;;;;14.70;86.80;;;;;;4212338;28;19923;-39
2020/12/13 00:04:53;;;;;;;;;;;14.70;86.90;;;;;;4213264;28;19931;-39
2020/12/13 00:07:14;;;;;;;;;;;14.60;86.90;;;;;;4213603;28;19931;-39
2020/12/13 00:09:34;;;;;;;;;;;14.60;86.80;;;;;;4196710;28;19985;-39
2020/12/13 00:11:56;;;;;;;;;;;14.60;86.90;;;;;;4199970;28;20248;-39
2020/12/13 00:14:17;;;;;;;;;;;14.60;87.00;;;;;;4212770;28;19924;-39
2020/12/13 00:16:37;;;;;;;;;;;14.60;87.10;;;;;;4213372;28;19974;-39
2020/12/13 00:18:58;;;;;;;;;;;14.60;87.00;;;;;;4213209;28;20424;-39
2020/12/13 00:21:19;;;;;;;;;;;14.60;87.10;;;;;;4213151;28;19946;-40
2020/12/13 00:23:40;;;;;;;;;;;14.60;87.10;;;;;;4212857;28;19924;-39
2020/12/13 00:26:00;;;;;;;;;;;14.60;87.10;;;;;;4213587;28;19970;-39
2020/12/13 00:28:22;;;;;;;;;;;14.50;87.10;;;;;;4213545;28;19924;-40
2020/12/13 00:30:44;;;;;;;;;;;14.50;87.00;;;;;;4213433;28;19931;-39
2020/12/13 00:33:04;;;;;;;;;;;14.60;87.30;;;;;;4213394;28;19927;-39
2020/12/13 00:35:25;;;;;;;;;;;14.50;87.20;;;;;;4213483;28;19974;-39
2020/12/13 00:37:47;;;;;;;;;;;14.50;87.20;;;;;;4213566;28;19928;-39
2020/12/13 00:40:08;;;;;;;;;;;14.50;87.40;;;;;;4212785;28;19977;-39
2020/12/13 00:42:28;;;;;;;;;;;14.50;87.30;;;;;;4212489;28;20386;-39
2020/12/13 00:44:50;;;;;;;;;;;14.50;87.40;;;;;;4212897;28;20027;-39
2020/12/13 00:47:11;;;;;;;;;;;14.50;87.30;;;;;;4212919;28;19924;-39
2020/12/13 00:49:31;;;;;;;;;;;14.50;87.40;;;;;;4212940;28;19963;-39
2020/12/13 00:51:53;;;;;;;;;;;14.60;87.60;;;;;;4196134;28;19959;-40
2020/12/13 00:54:14;;;;;;;;;;;14.70;86.80;;;;;;4196099;28;19924;-39
2020/12/13 00:56:36;;;;;;;;;;;14.90;86.10;;;;;;4196702;28;19924;-39
2020/12/13 00:58:58;;;;;;;;;;;15.00;85.70;;;;;;4211798;28;19962;-39
2020/12/13 01:01:19;;;;;;;;;;;15.00;85.40;;;;;;4213023;28;19923;-39
2020/12/13 01:03:40;;;;;;;;;;;15.10;85.00;;;;;;4196142;28;19920;-39
2020/12/13 01:06:01;;;;;;;;;;;15.10;84.90;;;;;;4195996;28;19997;-39
2020/12/13 01:08:22;;;;;;;;;;;15.10;84.70;;;;;;4195991;28;19968;-39
2020/12/13 01:10:46;;;;;;;;;;;15.10;84.70;;;;;;4205356;28;19920;-39
2020/12/13 01:13:06;;;;;;;;;;;15.10;84.80;;;;;;4212860;28;19927;-39
2020/12/13 01:15:27;;;;;;;;;;;15.10;84.80;;;;;;4212680;28;19965;-40
2020/12/13 01:17:50;;;;;;;;;;;15.10;84.80;;;;;;4212449;28;20029;-39
2020/12/13 01:20:10;;;;;;;;;;;15.10;84.90;;;;;;4213044;28;19924;-39
2020/12/13 01:22:35;;;;;;;;;;;15.20;84.30;;;;;;4212084;28;19977;-39
2020/12/13 01:24:56;;;;;;;;;;;15.40;83.70;;;;;;4212532;28;19931;-40
2020/12/13 01:27:17;;;;;;;;;;;15.40;83.20;;;;;;4215875;28;19956;-40
2020/12/13 01:29:38;;;;;;;;;;;15.50;83.00;;;;;;4215993;28;20637;-40
2020/12/13 01:31:58;;;;;;;;;;;15.50;83.00;;;;;;4215952;28;20028;-39
2020/12/13 01:34:20;;;;;;;;;;;15.50;82.90;;;;;;4216009;28;19924;-41
2020/12/13 01:36:41;;;;;;;;;;;15.40;82.90;;;;;;4215971;28;19920;-39
2020/12/13 01:39:02;;;;;;;;;;;15.40;83.00;;;;;;4215870;28;20039;-39
2020/12/13 01:41:23;;;;;;;;;;;15.40;83.20;;;;;;4215410;28;19935;-39
2020/12/13 01:43:58;;;;;;;;;;;15.30;83.40;;;;;;4215483;28;19930;-40
2020/12/13 01:46:18;;;;;;;;;;;15.30;83.50;;;;;;4215673;28;19927;-39
2020/12/13 01:48:40;;;;;;;;;;;15.30;83.70;;;;;;4215779;28;20020;-39
2020/12/13 01:51:09;;;;;;;;;;;15.30;83.70;;;;;;4215680;28;20328;-39
2020/12/13 01:53:32;;;;;;;;;;;15.40;83.50;;;;;;4198885;28;19966;-39
2020/12/13 01:55:56;;;;;;;;;;;15.40;83.20;;;;;;4198775;28;19970;-39
2020/12/13 01:58:19;;;;;;;;;;;15.40;83.10;;;;;;4198770;28;19929;-40
2020/12/13 02:00:40;;;;;;;;;;;15.40;82.90;;;;;;4200246;28;19920;-39
2020/12/13 02:03:06;;;;;;;;;;;15.50;82.70;;;;;;4214982;28;19946;-39
2020/12/13 02:05:28;;;;;;;;;;;15.50;82.70;;;;;;4215219;28;19928;-39
2020/12/13 02:07:50;;;;;;;;;;;15.50;82.70;;;;;;4215816;28;19938;-40
2020/12/13 02:10:11;;;;;;;;;;;15.40;82.80;;;;;;4215973;28;19924;-40
2020/12/13 02:12:34;;;;;;;;;;;15.40;82.90;;;;;;4215620;28;19920;-39
2020/12/13 02:14:55;;;;;;;;;;;15.40;83.00;;;;;;4215290;28;20290;-39
2020/12/13 02:17:16;;;;;;;;;;;15.40;83.10;;;;;;4214969;28;19924;-40
2020/12/13 02:19:36;;;;;;;;;;;15.30;83.30;;;;;;4214836;28;19924;-40
2020/12/13 02:22:00;;;;;;;;;;;15.30;83.40;;;;;;4214859;28;19928;-39
2020/12/13 02:24:21;;;;;;;;;;;15.50;82.70;;;;;;4215194;28;20405;-40
2020/12/13 02:26:43;;;;;;;;;;;15.70;82.00;;;;;;4214888;28;19920;-39
2020/12/13 02:29:04;;;;;;;;;;;15.80;81.00;;;;;;4214887;28;20398;-39
2020/12/13 02:31:25;;;;;;;;;;;15.90;80.60;;;;;;4215042;28;20392;-39
2020/12/13 02:33:46;;;;;;;;;;;15.90;80.70;;;;;;4214951;28;20185;-39
2020/12/13 02:36:08;;;;;;;;;;;16.00;80.10;;;;;;4214794;28;19927;-40
2020/12/13 02:38:30;;;;;;;;;;;16.00;80.00;;;;;;4215485;28;19920;-39
2020/12/13 02:40:52;;;;;;;;;;;15.90;80.10;;;;;;4214672;28;19920;-39
2020/12/13 02:43:13;;;;;;;;;;;15.90;80.30;;;;;;4209186;28;19923;-39
2020/12/13 02:45:34;;;;;;;;;;;15.80;80.50;;;;;;4212790;28;19920;-39
2020/12/13 02:47:55;;;;;;;;;;;15.80;80.70;;;;;;4214830;28;20022;-39
2020/12/13 02:50:15;;;;;;;;;;;15.80;80.90;;;;;;4214473;28;19977;-39
2020/12/13 02:52:36;;;;;;;;;;;15.80;80.70;;;;;;4214821;28;19951;-39
2020/12/13 02:54:57;;;;;;;;;;;15.80;80.90;;;;;;4214125;28;19924;-39
2020/12/13 02:57:19;;;;;;;;;;;15.70;80.90;;;;;;4214796;28;19920;-39
2020/12/13 02:59:40;;;;;;;;;;;15.70;81.20;;;;;;4214452;28;19931;-39
2020/12/13 03:02:01;;;;;;;;;;;15.70;81.50;;;;;;4199268;28;19920;-39
2020/12/13 03:04:22;;;;;;;;;;;15.80;81.10;;;;;;4214505;28;20014;-39
2020/12/13 03:06:43;;;;;;;;;;;15.90;80.40;;;;;;4214460;28;20019;-39
2020/12/13 03:09:03;;;;;;;;;;;16.00;79.90;;;;;;4214968;28;19930;-40
2020/12/13 03:11:24;;;;;;;;;;;16.00;79.60;;;;;;4214438;28;20390;-40
2020/12/13 03:13:46;;;;;;;;;;;16.00;79.60;;;;;;4214354;28;20370;-39
2020/12/13 03:16:06;;;;;;;;;;;16.00;79.60;;;;;;4214423;28;19990;-39
2020/12/13 03:18:27;;;;;;;;;;;15.90;79.70;;;;;;4213932;28;20451;-39
2020/12/13 03:20:48;;;;;;;;;;;15.90;79.90;;;;;;4213533;28;19948;-39
2020/12/13 03:23:08;;;;;;;;;;;16.00;79.70;;;;;;4214155;28;19924;-39
2020/12/13 03:25:29;;;;;;;;;;;16.00;79.60;;;;;;4213126;28;20685;-39
2020/12/13 03:27:50;;;;;;;;;;;16.00;79.60;;;;;;4214181;28;20332;-39
2020/12/13 03:30:11;;;;;;;;;;;16.00;79.80;;;;;;4214100;28;19920;-39
2020/12/13 03:32:35;;;;;;;;;;;16.00;79.50;;;;;;4214068;28;19977;-39
2020/12/13 03:34:58;;;;;;;;;;;16.10;78.90;;;;;;4214446;28;19923;-39
2020/12/13 03:37:19;;;;;;;;;;;16.20;78.50;;;;;;4213825;28;19943;-39
2020/12/13 03:39:40;;;;;;;;;;;16.30;78.20;;;;;;4213725;28;20405;-40
2020/12/13 03:42:04;;;;;;;;;;;16.30;78.20;;;;;;4213708;28;19924;-39
2020/12/13 03:44:25;;;;;;;;;;;16.20;78.20;;;;;;4213761;28;19930;-39
2020/12/13 03:46:48;;;;;;;;;;;16.20;78.40;;;;;;4213893;28;19963;-39
2020/12/13 03:49:09;;;;;;;;;;;16.10;78.60;;;;;;4212766;28;19928;-40
2020/12/13 03:51:33;;;;;;;;;;;16.10;78.70;;;;;;4214081;28;20010;-39
2020/12/13 03:53:53;;;;;;;;;;;16.30;78.20;;;;;;4213650;28;19965;-39
2020/12/13 03:56:15;;;;;;;;;;;16.50;77.30;;;;;;4213440;28;19927;-39
2020/12/13 03:58:36;;;;;;;;;;;16.60;76.60;;;;;;4214085;28;19924;-40
2020/12/13 04:00:56;;;;;;;;;;;16.60;76.30;;;;;;4213154;28;19966;-40
2020/12/13 04:03:21;;;;;;;;;;;16.60;76.30;;;;;;4213603;28;19928;-39
2020/12/13 04:05:42;;;;;;;;;;;16.60;76.50;;;;;;4213657;28;20418;-39
2020/12/13 04:08:03;;;;;;;;;;;16.50;76.50;;;;;;4196728;28;19921;-40
2020/12/13 04:10:25;;;;;;;;;;;16.50;76.70;;;;;;4196692;28;19924;-39
2020/12/13 04:12:45;;;;;;;;;;;16.40;76.90;;;;;;4197173;28;19931;-40
2020/12/13 04:15:06;;;;;;;;;;;16.40;77.30;;;;;;4196867;28;19920;-40
2020/12/13 04:17:27;;;;;;;;;;;16.20;77.60;;;;;;4196418;28;20027;-40
2020/12/13 04:19:48;;;;;;;;;;;16.20;77.90;;;;;;4196842;28;20299;-39
2020/12/13 04:22:09;;;;;;;;;;;16.10;78.40;;;;;;4195987;28;19999;-39
2020/12/13 04:24:30;;;;;;;;;;;16.00;78.70;;;;;;4196970;28;20024;-39
2020/12/13 04:26:51;;;;;;;;;;;16.10;78.70;;;;;;4208092;28;19923;-39
2020/12/13 04:29:12;;;;;;;;;;;16.20;78.40;;;;;;4212953;28;19956;-39
2020/12/13 04:31:33;;;;;;;;;;;16.30;77.80;;;;;;4213414;28;19928;-39
2020/12/13 04:33:53;;;;;;;;;;;16.30;77.50;;;;;;4213562;28;20332;-39
2020/12/13 04:36:15;;;;;;;;;;;16.30;77.50;;;;;;4212793;28;19924;-39
2020/12/13 04:38:36;;;;;;;;;;;16.30;77.50;;;;;;4213075;28;20439;-39
2020/12/13 04:40:58;;;;;;;;;;;16.30;77.80;;;;;;4212822;28;19920;-40
2020/12/13 04:43:19;;;;;;;;;;;16.30;77.90;;;;;;4212923;28;19924;-39
2020/12/13 04:45:40;;;;;;;;;;;16.30;77.60;;;;;;4212968;28;19950;-39
2020/12/13 04:48:05;;;;;;;;;;;16.40;77.20;;;;;;4213277;28;19963;-39
2020/12/13 04:50:26;;;;;;;;;;;16.40;77.00;;;;;;4213310;28;19924;-39
2020/12/13 04:52:48;;;;;;;;;;;16.50;76.80;;;;;;4213491;28;19931;-39
2020/12/13 04:55:10;;;;;;;;;;;16.40;77.00;;;;;;4213333;28;19924;-39
2020/12/13 04:57:31;;;;;;;;;;;16.40;77.10;;;;;;4196701;28;20458;-39
2020/12/13 04:59:52;;;;;;;;;;;16.40;77.10;;;;;;4195897;28;20383;-40
2020/12/13 05:02:13;;;;;;;;;;;16.40;77.00;;;;;;4196002;28;19931;-40
2020/12/13 05:04:34;;;;;;;;;;;16.40;77.10;;;;;;4195980;28;19924;-39
2020/12/13 05:06:55;;;;;;;;;;;16.30;77.30;;;;;;4208411;28;20396;-38
2020/12/13 05:09:16;;;;;;;;;;;16.30;77.20;;;;;;4212608;28;19920;-39
2020/12/13 05:11:38;;;;;;;;;;;16.40;77.20;;;;;;4212724;28;19920;-40
2020/12/13 05:13:59;;;;;;;;;;;16.30;77.10;;;;;;4213185;28;19924;-40
2020/12/13 05:16:20;;;;;;;;;;;16.30;77.30;;;;;;4213309;28;20686;-39
2020/12/13 05:18:41;;;;;;;;;;;16.20;77.60;;;;;;4212877;28;19924;-39
2020/12/13 05:21:03;;;;;;;;;;;16.20;77.80;;;;;;4212661;28;19932;-39
2020/12/13 05:23:23;;;;;;;;;;;16.20;77.80;;;;;;4212021;28;20302;-39
2020/12/13 05:25:45;;;;;;;;;;;16.20;77.90;;;;;;4212341;28;19969;-39
2020/12/13 05:28:06;;;;;;;;;;;16.10;78.00;;;;;;4212587;28;19930;-39
2020/12/13 05:30:30;;;;;;;;;;;16.10;78.00;;;;;;4195827;28;19928;-39
2020/12/13 05:32:57;;;;;;;;;;;16.20;77.90;;;;;;4195850;28;19932;-39
2020/12/13 05:35:20;;;;;;;;;;;16.10;77.90;;;;;;4195802;28;19936;-39
2020/12/13 05:37:42;;;;;;;;;;;16.10;78.10;;;;;;4195787;28;19928;-39
2020/12/13 05:40:07;;;;;;;;;;;16.00;78.30;;;;;;4195823;28;19931;-39
2020/12/13 05:42:32;;;;;;;;;;;16.10;78.10;;;;;;4195690;28;19951;-39
2020/12/13 05:45:13;;;;;;;;;;;16.30;77.50;;;;;;4196341;28;19924;-39
2020/12/13 05:50:28;;;;;;;;;;;16.40;76.50;;;;;;4212949;28;20358;-39
2020/12/13 05:52:50;;;;;;;;;;;16.40;76.50;;;;;;4211334;28;19924;-39
2020/12/13 05:55:11;;;;;;;;;;;16.40;76.40;;;;;;4212335;28;19920;-38
2020/12/13 05:57:33;;;;;;;;;;;16.40;76.50;;;;;;4195553;28;19931;-38
2020/12/13 05:59:54;;;;;;;;;;;16.40;76.60;;;;;;4209000;28;19948;-40
2020/12/13 06:02:14;;;;;;;;;;;16.30;76.70;;;;;;4212224;28;19966;-39
2020/12/13 06:04:40;;;;;;;;;;;16.30;76.80;;;;;;4212243;28;19966;-40
2020/12/13 06:07:03;;;;;;;;;;;16.40;76.50;;;;;;4211885;28;20286;-39
2020/12/13 06:09:30;;;;;;;;;;;16.50;76.20;;;;;;4212502;28;19928;-39
2020/12/13 06:11:51;;;;;;;;;;;16.50;75.90;;;;;;4213145;28;19993;-40
2020/12/13 06:14:14;;;;;;;;;;;16.50;75.80;;;;;;4215836;28;19924;-39
2020/12/13 06:16:37;;;;;;;;;;;16.50;76.10;;;;;;4215867;28;20370;-39
2020/12/13 06:18:57;;;;;;;;;;;16.40;76.30;;;;;;4214665;28;19965;-39
2020/12/13 06:21:19;;;;;;;;;;;16.40;76.70;;;;;;4215150;28;19931;-39
2020/12/13 06:23:40;;;;;;;;;;;16.40;76.30;;;;;;4215679;28;19946;-39
2020/12/13 06:26:01;;;;;;;;;;;16.60;75.60;;;;;;4215391;28;19924;-39
2020/12/13 06:28:22;;;;;;;;;;;16.70;74.80;;;;;;4215520;28;20010;-39
2020/12/13 06:30:44;;;;;;;;;;;16.80;74.30;;;;;;4215013;28;19920;-39
2020/12/13 06:33:05;;;;;;;;;;;16.90;74.10;;;;;;4214594;28;19924;-39
2020/12/13 06:35:26;;;;;;;;;;;16.80;74.20;;;;;;4214823;28;19927;-39
2020/12/13 06:37:47;;;;;;;;;;;16.70;74.40;;;;;;4214860;28;20397;-39
2020/12/13 06:40:09;;;;;;;;;;;16.70;74.80;;;;;;4198750;28;19928;-39
2020/12/13 06:42:32;;;;;;;;;;;16.70;74.90;;;;;;4198648;28;19990;-39
2020/12/13 06:45:02;;;;;;;;;;;16.70;74.70;;;;;;4198071;28;19977;-39
2020/12/13 06:47:24;;;;;;;;;;;16.80;74.30;;;;;;4198267;28;20636;-39
2020/12/13 06:49:48;;;;;;;;;;;16.90;73.90;;;;;;4198644;28;19963;-39
2020/12/13 06:52:09;;;;;;;;;;;16.90;73.80;;;;;;4198473;28;19920;-39
2020/12/13 06:54:30;;;;;;;;;;;16.90;74.00;;;;;;4198575;28;19982;-38
2020/12/13 06:56:52;;;;;;;;;;;16.80;74.20;;;;;;4213465;28;19931;-39
2020/12/13 06:59:12;;;;;;;;;;;16.90;74.20;;;;;;4214946;28;20011;-39
2020/12/13 07:01:35;;;;;;;;;;;16.90;74.00;;;;;;4214928;28;19920;-39
2020/12/13 07:03:58;;;;;;;;;;;16.90;74.00;;;;;;4214230;28;20374;-39
2020/12/13 07:06:25;;;;;;;;;;;16.90;74.20;;;;;;4214329;28;20373;-39
2020/12/13 07:08:48;;;;;;;;;;;16.80;74.40;;;;;;4214522;28;20498;-39
2020/12/13 07:11:10;;;;;;;;;;;16.70;74.70;;;;;;4214362;28;20426;-40
2020/12/13 07:13:33;;;;;;;;;;;16.80;74.70;;;;;;4214912;28;20392;-39
2020/12/13 07:15:57;;;;;;;;;;;16.80;74.70;;;;;;4214725;28;19924;-39
2020/12/13 07:18:19;;;;;;;;;;;16.80;74.80;;;;;;4214368;28;19981;-39
2020/12/13 07:20:41;;;;;;;;;;;16.70;75.00;;;;;;4213532;28;19927;-39
2020/12/13 07:23:03;;;;;;;;;;;16.80;75.30;;;;;;4214666;28;19924;-39
2020/12/13 07:25:24;;;;;;;;;;;16.80;75.90;;;;;;4214103;28;20380;-39
2020/12/13 07:27:47;;;;;;;;;;;16.80;76.10;;;;;;4214165;28;19931;-39
2020/12/13 07:30:12;;;;;;;;;;;16.70;76.10;;;;;;4213783;28;19924;-39
2020/12/13 07:32:33;;;;;;;;;;;16.70;76.50;;;;;;4212348;28;19924;-39
2020/12/13 07:34:54;;;;;;;;;;;16.60;76.80;;;;;;4213707;28;19924;-39
2020/12/13 07:37:16;;;;;;;;;;;16.70;76.70;;;;;;4214664;28;19923;-39
2020/12/13 07:39:39;;;;;;;;;;;16.70;76.40;;;;;;4213811;28;19924;-39
2020/12/13 07:42:07;;;;;;;;;;;16.70;76.40;;;;;;4205449;28;19965;-39
2020/12/13 07:44:30;;;;;;;;;;;16.60;76.60;;;;;;4214022;28;20459;-39
2020/12/13 07:46:51;;;;;;;;;;;16.60;76.50;;;;;;4214271;28;19924;-39
2020/12/13 07:49:14;;;;;;;;;;;16.70;76.30;;;;;;4213909;28;19923;-39
2020/12/13 07:51:36;;;;;;;;;;;16.70;76.20;;;;;;4211426;28;20328;-39
2020/12/13 07:54:07;;;;;;;;;;;16.70;76.20;;;;;;4212778;28;20486;-47
2020/12/13 07:56:28;;;;;;;;;;;16.60;76.30;;;;;;4213621;28;19935;-40
2020/12/13 07:58:49;;;;;;;;;;;16.70;76.00;;;;;;4214393;28;20057;-40
2020/12/13 08:01:10;;;;;;;;;;;16.80;75.70;;;;;;4214269;28;19962;-39
2020/12/13 08:03:41;;;;;;;;;;;16.80;75.50;;;;;;4213260;28;20407;-39
2020/12/13 08:06:02;;;;;;;;;;;16.80;75.40;;;;;;4213467;28;20290;-39
2020/12/13 08:08:25;;;;;;;;;;;16.80;75.40;;;;;;4213745;28;20290;-39
2020/12/13 08:10:46;;;;;;;;;;;16.80;75.20;;;;;;4213001;28;19924;-39
2020/12/13 08:13:07;;;;;;;;;;;16.90;74.80;;;;;;4214008;28;20302;-41
2020/12/13 08:15:28;;;;;;;;;;;16.90;74.70;;;;;;4213475;28;19928;-39
2020/12/13 08:17:59;;;;;;;;;;;16.90;74.60;;;;;;4213292;28;19924;-39
2020/12/13 08:20:20;;;;;;;;;;;16.90;74.80;;;;;;4213016;28;20409;-39
2020/12/13 08:22:42;;;;;;;;;;;16.80;75.00;;;;;;4213781;28;20405;-39
2020/12/13 08:25:04;;;;;;;;;;;16.70;75.40;;;;;;4213213;28;19959;-40
2020/12/13 08:27:28;;;;;;;;;;;16.60;75.80;;;;;;4212888;28;19923;-39
2020/12/13 08:29:49;;;;;;;;;;;16.60;76.50;;;;;;4196434;28;19931;-40
2020/12/13 08:32:14;;;;;;;;;;;16.60;76.60;;;;;;4204767;28;19927;-41
2020/12/13 08:34:35;;;;;;;;;;;16.60;76.20;;;;;;4213204;28;19931;-39
2020/12/13 08:36:58;;;;;;;;;;;16.70;75.90;;;;;;4213699;28;20641;-39
2020/12/13 08:39:25;;;;;;;;;;;16.70;75.90;;;;;;4213364;28;19920;-40
2020/12/13 08:41:46;;;;;;;;;;;16.70;75.90;;;;;;4212570;28;19973;-41
2020/12/13 08:44:25;;;;;;;;;;;16.60;76.10;;;;;;4213167;28;20362;-40
2020/12/13 08:46:49;;;;;;;;;;;16.60;76.40;;;;;;4212972;28;20128;-39
2020/12/13 08:49:10;;;;;;;;;;;16.50;76.60;;;;;;4213241;28;20297;-39
2020/12/13 08:51:31;;;;;;;;;;;16.40;77.00;;;;;;4212166;28;19931;-39
2020/12/13 08:53:55;;;;;;;;;;;16.30;77.30;;;;;;4212965;28;19924;-39
2020/12/13 08:56:16;;;;;;;;;;;16.30;77.80;;;;;;4212794;28;19960;-39
2020/12/13 08:58:47;;;;;;;;;;;16.40;77.40;;;;;;4213350;28;19969;-39
2020/12/13 09:01:09;;;;;;;;;;;16.60;76.80;;;;;;4212891;28;19924;-40
2020/12/13 09:03:30;;;;;;;;;;;16.60;76.20;;;;;;4207956;28;19924;-39
2020/12/13 09:05:52;;;;;;;;;;;16.60;76.10;;;;;;4213106;28;19926;-39
2020/12/13 09:08:21;;;;;;;;;;;16.60;76.10;;;;;;4213265;28;19946;-39
2020/12/13 09:10:44;;;;;;;;;;;16.60;76.30;;;;;;4211058;28;19978;-39
2020/12/13 09:13:05;;;;;;;;;;;16.50;76.50;;;;;;4212688;28;19924;-38
2020/12/13 09:15:31;;;;;;;;;;;16.40;76.90;;;;;;4213033;28;19928;-39
2020/12/13 09:17:53;;;;;;;;;;;16.40;77.30;;;;;;4212513;28;19924;-39
2020/12/13 09:20:22;;;;;;;;;;;16.30;77.70;;;;;;4212675;28;20396;-39
2020/12/13 09:23:00;;;;;;;;;;;16.20;78.10;;;;;;4212335;28;19974;-39
2020/12/13 09:25:20;;;;;;;;;;;16.10;78.60;;;;;;4212215;28;20403;-39
2020/12/13 09:27:41;;;;;;;;;;;16.00;78.90;;;;;;4212767;28;20658;-39
2020/12/13 09:30:02;;;;;;;;;;;15.90;79.30;;;;;;4212697;28;19927;-39
2020/12/13 09:32:25;;;;;;;;;;;15.90;79.50;;;;;;4212271;28;19920;-39
2020/12/13 09:34:48;;;;;;;;;;;15.80;79.80;;;;;;4212743;28;19924;-39
2020/12/13 09:37:09;;;;;;;;;;;15.80;79.90;;;;;;4212435;28;19956;-39
2020/12/13 09:39:30;;;;;;;;;;;16.10;79.30;;;;;;4211904;28;19920;-39
2020/12/13 09:41:53;;;;;;;;;;;16.60;77.20;;;;;;4212187;28;19926;-39
2020/12/13 09:44:14;;;;;;;;;;;17.30;73.70;;;;;;4209495;28;20022;-39
2020/12/13 09:46:35;;;;;;;;;;;18.10;70.30;;;;;;4212637;28;19920;-41
2020/12/13 09:49:00;;;;;;;;;;;18.80;67.30;;;;;;4215945;28;20019;-40
2020/12/13 09:51:22;;;;;;;;;;;19.50;64.10;;;;;;4216183;28;20010;-40
2020/12/13 09:53:42;;;;;;;;;;;20.20;61.30;;;;;;4215565;28;19931;-40
2020/12/13 09:56:03;;;;;;;;;;;20.90;58.80;;;;;;4216040;28;19924;-40
2020/12/13 09:58:24;;;;;;;;;;;21.50;56.70;;;;;;4215565;28;19952;-39
2020/12/13 10:00:44;;;;;;;;;;;22.10;55.20;;;;;;4215291;28;19930;-40
2020/12/13 10:03:06;;;;;;;;;;;22.30;54.10;;;;;;4211817;28;19924;-39
2020/12/13 10:05:34;;;;;;;;;;;22.50;53.70;;;;;;4215463;28;20267;-40
2020/12/13 10:10:37;;;;;;;;;;;22.30;54.10;;;;;;4215316;28;20022;-40
2020/12/13 10:12:58;;;;;;;;;;;22.00;54.90;;;;;;4216198;28;20282;-39
2020/12/13 10:15:19;;;;;;;;;;;21.70;55.70;;;;;;4215262;28;19935;-40
2020/12/13 10:17:41;;;;;;;;;;;21.30;56.60;;;;;;4215400;28;19974;-39
2020/12/13 10:20:04;;;;;;;;;;;21.00;57.60;;;;;;4214765;28;19924;-40
2020/12/13 10:22:25;;;;;;;;;;;20.80;58.40;;;;;;4215000;28;20309;-39
2020/12/13 10:24:47;;;;;;;;;;;20.70;58.70;;;;;;4215121;28;19924;-39
2020/12/13 10:27:07;;;;;;;;;;;20.70;58.80;;;;;;4197487;28;19930;-41
2020/12/13 10:29:28;;;;;;;;;;;20.70;58.80;;;;;;4198607;28;19979;-40
2020/12/13 10:31:49;;;;;;;;;;;20.70;58.80;;;;;;4198522;28;19935;-39
2020/12/13 10:34:11;;;;;;;;;;;20.70;58.70;;;;;;4198411;28;19935;-39
2020/12/13 10:36:32;;;;;;;;;;;20.70;58.80;;;;;;4198424;28;19920;-39
2020/12/13 10:38:54;;;;;;;;;;;20.80;58.80;;;;;;4212796;28;20023;-40
2020/12/13 10:41:15;;;;;;;;;;;20.70;58.80;;;;;;4214902;28;19924;-39
2020/12/13 10:43:39;;;;;;;;;;;20.70;58.80;;;;;;4214576;28;19927;-46
2020/12/13 10:46:01;;;;;;;;;;;20.70;58.90;;;;;;4214628;28;19969;-39
2020/12/13 10:48:22;;;;;;;;;;;20.70;59.00;;;;;;4198672;28;19924;-39
2020/12/13 10:50:43;;;;;;;;;;;20.70;59.00;;;;;;4212950;28;19963;-39
2020/12/13 10:53:04;;;;;;;;;;;20.70;59.10;;;;;;4214718;28;19919;-39
2020/12/13 10:55:28;;;;;;;;;;;20.70;59.00;;;;;;4214044;28;19920;-39
2020/12/13 10:57:49;;;;;;;;;;;20.80;58.90;;;;;;4213335;28;19927;-39
2020/12/13 11:00:10;;;;;;;;;;;20.80;58.80;;;;;;4214559;28;20677;-39
2020/12/13 11:02:30;;;;;;;;;;;20.80;58.80;;;;;;4214763;28;20267;-39
2020/12/13 11:04:51;;;;;;;;;;;20.80;58.80;;;;;;4213459;28;19969;-39
2020/12/13 11:07:12;;;;;;;;;;;20.90;58.70;;;;;;4214550;28;20364;-39
2020/12/13 11:09:33;;;;;;;;;;;20.90;58.80;;;;;;4214577;28;20504;-39
2020/12/13 11:11:54;;;;;;;;;;;20.90;59.50;;;;;;4197819;28;19925;-39
2020/12/13 11:14:15;;;;;;;;;;;20.80;58.90;;;;;;4197633;28;19924;-39
2020/12/13 11:16:36;;;;;;;;;;;20.70;59.10;;;;;;4207718;28;19956;-39
2020/12/13 11:18:57;;;;;;;;;;;20.70;59.30;;;;;;4213073;28;19926;-39
2020/12/13 11:21:18;;;;;;;;;;;20.60;59.50;;;;;;4214158;28;20019;-40
2020/12/13 11:23:38;;;;;;;;;;;20.40;60.00;;;;;;4213804;28;19928;-39
2020/12/13 11:25:59;;;;;;;;;;;20.30;60.60;;;;;;4214277;28;20019;-39
2020/12/13 11:28:20;;;;;;;;;;;20.30;60.90;;;;;;4214226;28;19920;-39
2020/12/13 11:30:42;;;;;;;;;;;20.30;60.80;;;;;;4214338;28;20082;-40
2020/12/13 11:33:03;;;;;;;;;;;20.40;60.60;;;;;;4214041;28;19927;-39
2020/12/13 11:35:24;;;;;;;;;;;20.50;60.40;;;;;;4213765;28;19923;-40
2020/12/13 11:37:45;;;;;;;;;;;20.50;60.20;;;;;;4213438;28;20446;-39
2020/12/13 11:40:06;;;;;;;;;;;20.60;60.10;;;;;;4213094;28;19989;-40
2020/12/13 11:42:28;;;;;;;;;;;20.60;59.90;;;;;;4208472;28;20664;-39
2020/12/13 11:44:49;;;;;;;;;;;20.60;59.80;;;;;;4213980;28;20267;-39
2020/12/13 11:47:11;;;;;;;;;;;20.70;59.90;;;;;;4213575;28;19924;-39
2020/12/13 11:49:32;;;;;;;;;;;20.60;59.90;;;;;;4204665;28;20382;-39
2020/12/13 11:51:53;;;;;;;;;;;20.60;59.90;;;;;;4213274;28;20010;-40
2020/12/13 11:54:14;;;;;;;;;;;20.60;60.10;;;;;;4213698;28;19939;-39
2020/12/13 11:56:39;;;;;;;;;;;20.40;60.40;;;;;;4213718;28;20325;-39
2020/12/13 11:59:00;;;;;;;;;;;20.30;61.10;;;;;;4213596;28;19920;-39
2020/12/13 12:01:21;;;;;;;;;;;20.10;61.70;;;;;;4213562;28;19920;-39
2020/12/13 12:03:42;;;;;;;;;;;20.10;62.00;;;;;;4213286;28;20389;-39
2020/12/13 12:06:03;;;;;;;;;;;20.10;62.00;;;;;;4213607;28;19926;-39
2020/12/13 12:08:27;;;;;;;;;;;20.20;61.80;;;;;;4213613;28;19920;-41
2020/12/13 12:10:48;;;;;;;;;;;20.20;61.70;;;;;;4212598;28;19924;-39
2020/12/13 12:13:08;;;;;;;;;;;20.30;61.50;;;;;;4213248;28;19920;-39
2020/12/13 12:15:30;;;;;;;;;;;20.30;61.30;;;;;;4213292;28;19977;-40
2020/12/13 12:17:51;;;;;;;;;;;20.40;61.10;;;;;;4212848;28;19969;-39
2020/12/13 12:20:16;;;;;;;;;;;20.50;61.00;;;;;;4202570;28;19931;-39
2020/12/13 12:22:38;;;;;;;;;;;20.50;60.90;;;;;;4212812;28;19920;-39
2020/12/13 12:25:02;;;;;;;;;;;20.60;60.80;;;;;;4212422;28;20404;-40
2020/12/13 12:27:23;;;;;;;;;;;20.60;60.70;;;;;;4202914;28;20023;-40
2020/12/13 12:29:44;;;;;;;;;;;20.70;60.40;;;;;;4213117;28;20448;-39
2020/12/13 12:32:05;;;;;;;;;;;20.70;60.30;;;;;;4212729;28;19986;-39
2020/12/13 12:34:26;;;;;;;;;;;20.80;60.20;;;;;;4212014;28;19924;-39
2020/12/13 12:36:47;;;;;;;;;;;20.80;60.20;;;;;;4213082;28;19924;-39
2020/12/13 12:39:08;;;;;;;;;;;20.80;60.20;;;;;;4213747;28;19920;-39
2020/12/13 12:41:30;;;;;;;;;;;20.70;60.40;;;;;;4213054;28;19934;-40
2020/12/13 12:43:51;;;;;;;;;;;20.60;60.60;;;;;;4212258;28;20026;-39
2020/12/13 12:46:12;;;;;;;;;;;20.60;61.00;;;;;;4213224;28;19926;-39
2020/12/13 12:48:33;;;;;;;;;;;20.60;61.00;;;;;;4212739;28;19920;-39
2020/12/13 12:50:54;;;;;;;;;;;20.60;61.00;;;;;;4212970;28;19931;-39
2020/12/13 12:53:15;;;;;;;;;;;20.60;61.00;;;;;;4212835;28;19923;-39
2020/12/13 12:55:37;;;;;;;;;;;20.70;61.10;;;;;;4196284;28;19920;-39
2020/12/13 12:57:59;;;;;;;;;;;20.60;61.10;;;;;;4196053;28;20278;-39
2020/12/13 13:00:41;;;;;;;;;;;20.60;61.10;;;;;;4207547;28;19980;-40
2020/12/13 13:03:02;;;;;;;;;;;20.70;61.10;;;;;;4212383;28;20357;-39
2020/12/13 13:05:29;;;;;;;;;;;20.70;61.00;;;;;;4212340;28;20374;-39
2020/12/13 13:07:50;;;;;;;;;;;20.70;61.20;;;;;;4212824;28;20714;-39
2020/12/13 13:10:16;;;;;;;;;;;20.60;61.60;;;;;;4211944;28;19924;-39
2020/12/13 13:12:37;;;;;;;;;;;20.50;61.80;;;;;;4211949;28;19928;-39
2020/12/13 13:14:59;;;;;;;;;;;20.60;61.90;;;;;;4212639;28;20360;-39
2020/12/13 13:17:22;;;;;;;;;;;20.60;61.80;;;;;;4212744;28;20324;-40
2020/12/13 13:19:44;;;;;;;;;;;20.60;61.80;;;;;;4212269;28;19923;-39
2020/12/13 13:22:05;;;;;;;;;;;20.60;61.70;;;;;;4208032;28;19923;-39
2020/12/13 13:24:26;;;;;;;;;;;20.70;61.70;;;;;;4218025;28;19981;-39
2020/12/13 13:26:48;;;;;;;;;;;20.70;61.60;;;;;;4217804;28;19923;-43
2020/12/13 13:29:08;;;;;;;;;;;20.70;61.50;;;;;;4217496;28;19924;-43
2020/12/13 13:31:29;;;;;;;;;;;20.70;61.60;;;;;;4218227;28;20293;-40
2020/12/13 13:33:50;;;;;;;;;;;20.70;61.90;;;;;;4217402;28;19981;-40
2020/12/13 13:36:12;;;;;;;;;;;20.60;62.10;;;;;;4217973;28;20647;-39
2020/12/13 13:38:34;;;;;;;;;;;20.50;62.50;;;;;;4217860;28;20282;-40
2020/12/13 13:40:56;;;;;;;;;;;20.60;62.50;;;;;;4217355;28;20028;-39
2020/12/13 13:43:17;;;;;;;;;;;20.50;62.50;;;;;;4215471;28;19924;-40
2020/12/13 13:51:06;;;;;;;;;;;20.30;63.70;;;;;;4214779;28;19924;-42
2020/12/13 13:53:27;;;;;;;;;;;20.20;63.90;;;;;;4217911;28;20421;-40
2020/12/13 13:55:55;;;;;;;;;;;20.30;64.00;;;;;;4217653;28;20023;-40